Time;durP1;ratioP1;P1;durP2;ratioP2;P2;SDS_P1;SDS_P2;PMS_P1;PMS_P2;Temp;Humidity;BMP_temperature;BMP_pressure;BME280_temperature;BME280_humidity;BME280_pressure;Samples;Min_cycle;Max_cycle;Signal;HPM_P1;HPM_P2
2023/12/08 00:00:55;;;;;;;5.00;4.38;;;16.50;44.30;;;;;;5169430;27;45263;-64
2023/12/08 00:03:22;;;;;;;7.10;4.38;;;16.40;44.30;;;;;;5168879;27;45266;-64
2023/12/08 00:05:50;;;;;;;5.53;4.40;;;16.40;44.30;;;;;;5168684;27;45253;-64
2023/12/08 00:08:18;;;;;;;5.63;4.22;;;16.40;44.90;;;;;;5168714;27;45436;-64
2023/12/08 00:10:44;;;;;;;6.85;4.78;;;16.40;44.40;;;;;;5169164;27;45414;-64
2023/12/08 00:13:11;;;;;;;8.60;4.70;;;16.40;44.40;;;;;;5168848;27;45522;-65
2023/12/08 00:15:38;;;;;;;6.68;4.35;;;16.30;44.40;;;;;;5168957;27;45210;-65
2023/12/08 00:18:05;;;;;;;8.40;4.90;;;16.30;44.40;;;;;;5169099;27;45430;-65
2023/12/08 00:20:32;;;;;;;5.85;4.38;;;16.30;44.50;;;;;;5169420;27;45442;-65
2023/12/08 00:23:00;;;;;;;7.78;4.97;;;16.30;44.40;;;;;;5168850;27;45479;-66
2023/12/08 00:25:27;;;;;;;6.55;5.20;;;16.20;44.30;;;;;;5169018;27;45328;-65
2023/12/08 00:27:54;;;;;;;7.43;5.40;;;16.20;44.40;;;;;;5168906;27;45323;-65
2023/12/08 00:30:21;;;;;;;8.45;4.82;;;16.20;44.50;;;;;;5169165;27;45357;-64
2023/12/08 00:32:48;;;;;;;7.18;4.80;;;16.10;44.50;;;;;;5168602;27;45355;-65
2023/12/08 00:35:15;;;;;;;7.95;5.05;;;16.10;44.50;;;;;;5168614;27;45343;-64
2023/12/08 00:37:42;;;;;;;6.25;4.55;;;16.10;44.50;;;;;;5168709;27;45502;-64
2023/12/08 00:40:12;;;;;;;7.95;4.45;;;16.10;44.70;;;;;;5169188;27;45416;-64
2023/12/08 00:42:38;;;;;;;6.55;3.90;;;16.10;44.70;;;;;;5168542;27;45483;-65
2023/12/08 00:45:06;;;;;;;5.97;4.63;;;16.10;45.40;;;;;;5168921;27;45368;-64
2023/12/08 00:47:32;;;;;;;7.97;4.90;;;16.00;44.80;;;;;;5169065;27;45331;-64
2023/12/08 00:49:59;;;;;;;6.57;4.40;;;16.00;44.90;;;;;;5168562;27;45251;-64
2023/12/08 00:52:26;;;;;;;6.78;5.10;;;16.00;45.00;;;;;;5168584;27;45577;-66
2023/12/08 00:54:53;;;;;;;6.25;4.32;;;15.90;44.90;;;;;;5168786;27;45305;-64
2023/12/08 00:57:27;;;;;;;6.20;4.13;;;15.90;45.00;;;;;;5168916;27;45356;-64
2023/12/08 00:59:53;;;;;;;8.80;4.28;;;15.90;45.10;;;;;;5169108;27;45435;-64
2023/12/08 01:02:20;;;;;;;6.85;5.05;;;15.90;45.10;;;;;;5168451;27;45552;-64
2023/12/08 01:04:47;;;;;;;4.82;4.00;;;15.80;45.10;;;;;;5168522;27;45245;-64
2023/12/08 01:07:15;;;;;;;5.25;4.28;;;15.80;45.10;;;;;;5168385;27;45324;-65
2023/12/08 01:09:42;;;;;;;5.38;4.40;;;15.80;45.10;;;;;;5171097;27;45417;-65
2023/12/08 01:12:09;;;;;;;6.50;4.72;;;15.80;45.20;;;;;;5171850;27;46393;-64
2023/12/08 01:14:37;;;;;;;6.38;4.10;;;15.70;45.10;;;;;;5171921;27;45455;-64
2023/12/08 01:17:04;;;;;;;4.75;3.90;;;15.70;45.20;;;;;;5171936;27;45251;-64
2023/12/08 01:19:31;;;;;;;7.43;4.47;;;15.70;45.10;;;;;;5172359;27;45438;-64
2023/12/08 01:21:58;;;;;;;4.25;3.58;;;15.70;45.30;;;;;;5171848;27;45781;-64
2023/12/08 01:24:25;;;;;;;6.15;4.57;;;15.60;45.20;;;;;;5171808;27;45370;-64
2023/12/08 01:26:52;;;;;;;5.40;4.78;;;15.60;45.20;;;;;;5171916;27;45270;-64
2023/12/08 01:29:18;;;;;;;5.10;4.57;;;15.60;45.30;;;;;;5171915;27;45510;-64
2023/12/08 01:31:47;;;;;;;5.95;5.10;;;15.50;45.30;;;;;;5171404;27;46666;-64
2023/12/08 01:34:13;;;;;;;5.40;4.53;;;15.50;45.30;;;;;;5171400;27;45312;-64
2023/12/08 01:36:40;;;;;;;5.00;4.28;;;15.50;45.40;;;;;;5171498;27;45219;-64
2023/12/08 01:39:07;;;;;;;4.72;3.70;;;15.40;45.40;;;;;;5171890;27;45247;-64
2023/12/08 01:41:34;;;;;;;4.45;4.05;;;15.50;45.50;;;;;;5171485;27;46401;-64
2023/12/08 01:44:03;;;;;;;5.70;4.10;;;15.40;45.40;;;;;;5171445;27;45264;-64
2023/12/08 01:46:30;;;;;;;5.50;3.58;;;15.40;45.50;;;;;;5171523;27;45545;-65
2023/12/08 01:48:58;;;;;;;3.97;3.60;;;15.40;45.50;;;;;;5171708;27;45332;-64
2023/12/08 01:51:25;;;;;;;3.90;3.47;;;15.40;45.50;;;;;;5171266;27;46653;-64
2023/12/08 01:53:52;;;;;;;6.55;4.63;;;15.40;45.40;;;;;;5171288;27;45486;-64
2023/12/08 01:56:19;;;;;;;4.95;4.45;;;15.30;45.40;;;;;;5171418;27;45395;-64
2023/12/08 01:58:46;;;;;;;5.15;4.32;;;15.30;45.50;;;;;;5171624;27;45281;-64
2023/12/08 02:01:13;;;;;;;4.60;4.15;;;15.30;45.60;;;;;;5171073;27;47343;-64
2023/12/08 02:03:40;;;;;;;4.72;4.30;;;15.30;45.60;;;;;;5171473;27;45323;-64
2023/12/08 02:06:08;;;;;;;4.90;3.60;;;15.20;45.60;;;;;;5171345;27;45388;-64
2023/12/08 02:08:35;;;;;;;5.65;4.13;;;15.20;45.70;;;;;;5171487;27;45365;-64
2023/12/08 02:11:02;;;;;;;5.57;4.60;;;15.20;45.60;;;;;;5170635;27;45325;-65
2023/12/08 02:13:29;;;;;;;6.25;3.53;;;15.20;45.70;;;;;;5171198;27;45332;-65
2023/12/08 02:16:00;;;;;;;4.63;3.65;;;15.20;45.70;;;;;;5170818;27;45311;-64
2023/12/08 02:18:27;;;;;;;4.72;3.90;;;15.20;45.70;;;;;;5168327;27;45312;-64
2023/12/08 02:20:54;;;;;;;4.43;4.03;;;15.20;45.70;;;;;;5170419;27;46573;-64
2023/12/08 02:23:22;;;;;;;5.93;4.80;;;15.20;45.70;;;;;;5170947;27;45331;-64
2023/12/08 02:25:50;;;;;;;4.90;4.40;;;15.10;45.70;;;;;;5171079;27;45399;-65
2023/12/08 02:28:17;;;;;;;5.28;4.30;;;15.10;45.80;;;;;;5171326;27;45305;-64
2023/12/08 02:30:44;;;;;;;5.70;4.50;;;15.10;45.80;;;;;;5170686;27;46385;-64
2023/12/08 02:33:12;;;;;;;6.03;4.28;;;15.10;45.80;;;;;;5170626;27;45298;-63
2023/12/08 02:35:40;;;;;;;5.13;4.07;;;15.10;45.80;;;;;;5170584;27;45562;-65
2023/12/08 02:38:08;;;;;;;5.45;4.43;;;15.00;45.80;;;;;;5170821;27;45401;-64
2023/12/08 02:40:35;;;;;;;6.32;4.10;;;15.00;45.80;;;;;;5170592;27;45738;-64
2023/12/08 02:43:03;;;;;;;6.22;4.45;;;15.00;45.80;;;;;;5170676;27;45379;-64
2023/12/08 02:45:30;;;;;;;5.32;4.10;;;15.00;45.90;;;;;;5170472;27;45345;-64
2023/12/08 02:47:57;;;;;;;4.90;4.40;;;15.00;45.90;;;;;;5170454;27;45320;-64
2023/12/08 02:50:24;;;;;;;4.70;3.97;;;15.00;45.90;;;;;;5170152;27;45378;-64
2023/12/08 02:52:51;;;;;;;5.18;4.32;;;15.00;45.90;;;;;;5170075;27;45255;-65
2023/12/08 02:55:18;;;;;;;4.65;3.90;;;14.90;45.80;;;;;;5170478;27;45362;-64
2023/12/08 02:57:45;;;;;;;4.68;3.50;;;14.90;45.80;;;;;;5170438;27;45348;-64
2023/12/08 03:00:14;;;;;;;4.70;3.80;;;14.90;45.90;;;;;;5170000;27;46682;-64
2023/12/08 03:02:41;;;;;;;5.22;3.88;;;14.90;45.80;;;;;;5170224;27;45328;-64
2023/12/08 03:05:08;;;;;;;4.88;4.03;;;14.90;45.90;;;;;;5170031;27;45480;-64
2023/12/08 03:07:35;;;;;;;4.88;3.92;;;14.90;45.90;;;;;;5170220;27;45384;-64
2023/12/08 03:10:02;;;;;;;4.95;3.95;;;14.90;45.90;;;;;;5169857;27;45477;-64
2023/12/08 03:12:29;;;;;;;6.07;3.88;;;14.90;45.90;;;;;;5169692;27;45251;-64
2023/12/08 03:14:56;;;;;;;4.97;4.00;;;14.90;45.90;;;;;;5170051;27;45189;-64
2023/12/08 03:17:24;;;;;;;4.13;3.72;;;14.90;45.90;;;;;;5169926;27;45489;-64
2023/12/08 03:19:51;;;;;;;4.70;4.20;;;14.90;45.90;;;;;;5150568;27;45783;-64
2023/12/08 03:22:18;;;;;;;4.22;3.45;;;14.80;45.90;;;;;;5148644;27;45339;-64
2023/12/08 03:24:45;;;;;;;4.10;3.70;;;14.80;46.00;;;;;;5148810;27;45309;-64
2023/12/08 03:27:12;;;;;;;4.30;3.85;;;14.80;45.90;;;;;;5148899;27;45539;-64
2023/12/08 03:29:40;;;;;;;4.18;3.70;;;14.80;45.90;;;;;;5148689;27;45470;-65
2023/12/08 03:32:07;;;;;;;3.53;3.22;;;14.80;45.90;;;;;;5147879;27;45301;-64
2023/12/08 03:34:35;;;;;;;4.25;3.58;;;14.80;45.90;;;;;;5149002;27;45262;-64
2023/12/08 03:37:02;;;;;;;4.22;3.05;;;14.70;45.90;;;;;;5148743;27;45586;-65
2023/12/08 03:39:29;;;;;;;3.95;3.30;;;14.70;45.90;;;;;;5148584;27;46635;-65
2023/12/08 03:41:56;;;;;;;4.30;3.00;;;14.80;45.90;;;;;;5148676;27;45309;-65
2023/12/08 03:44:23;;;;;;;4.18;3.58;;;14.70;45.90;;;;;;5149089;27;45348;-65
2023/12/08 03:46:50;;;;;;;4.10;3.28;;;14.70;45.90;;;;;;5148910;27;45276;-65
2023/12/08 03:49:17;;;;;;;3.72;3.05;;;14.70;45.90;;;;;;5148605;27;46371;-65
2023/12/08 03:51:45;;;;;;;3.55;3.25;;;14.70;46.00;;;;;;5148781;27;45300;-65
2023/12/08 03:54:12;;;;;;;4.28;3.50;;;14.70;45.90;;;;;;5148774;27;45333;-66
2023/12/08 03:56:39;;;;;;;3.75;3.22;;;14.60;45.90;;;;;;5148993;27;45361;-65
2023/12/08 03:59:06;;;;;;;3.42;3.13;;;14.60;46.00;;;;;;5148303;27;46690;-65
2023/12/08 04:01:32;;;;;;;5.00;3.28;;;14.60;46.00;;;;;;5148624;27;45263;-66
2023/12/08 04:03:59;;;;;;;2.95;2.50;;;14.60;46.00;;;;;;5148492;27;45408;-64
2023/12/08 04:06:27;;;;;;;3.30;3.00;;;14.60;46.00;;;;;;5148508;27;45339;-64
2023/12/08 04:08:55;;;;;;;4.60;3.15;;;14.60;46.00;;;;;;5147915;27;45666;-64
2023/12/08 04:11:22;;;;;;;3.63;3.05;;;14.60;46.00;;;;;;5148061;27;45332;-66
2023/12/08 04:13:49;;;;;;;3.92;2.78;;;14.60;46.10;;;;;;5147877;27;45485;-64
2023/12/08 04:16:16;;;;;;;3.40;3.10;;;14.60;46.10;;;;;;5148306;27;45463;-65
2023/12/08 04:18:42;;;;;;;2.97;2.67;;;14.60;46.10;;;;;;5147112;27;46318;-65
2023/12/08 04:21:09;;;;;;;3.10;2.80;;;14.60;46.10;;;;;;5147971;27;45322;-64
2023/12/08 04:23:36;;;;;;;3.40;3.10;;;14.60;46.10;;;;;;5148165;27;45315;-66
2023/12/08 04:26:08;;;;;;;3.33;3.03;;;14.60;46.20;;;;;;5148309;27;45419;-65
2023/12/08 04:28:35;;;;;;;3.42;2.70;;;14.60;46.20;;;;;;5147941;27;46398;-64
2023/12/08 04:31:02;;;;;;;3.13;2.83;;;14.60;46.20;;;;;;5147802;27;45259;-64
2023/12/08 04:33:28;;;;;;;3.45;2.60;;;14.50;46.20;;;;;;5147968;27;45436;-64
2023/12/08 04:35:55;;;;;;;2.80;2.60;;;14.50;46.20;;;;;;5147914;27;45331;-65
2023/12/08 04:38:22;;;;;;;3.20;2.90;;;14.50;46.20;;;;;;5147809;27;45339;-64
2023/12/08 04:40:49;;;;;;;3.20;2.90;;;14.50;46.20;;;;;;5148386;27;45326;-64
2023/12/08 04:43:17;;;;;;;3.17;2.70;;;14.50;46.30;;;;;;5149859;27;45317;-65
2023/12/08 04:45:44;;;;;;;3.28;2.88;;;14.50;46.30;;;;;;5152035;27;45414;-64
2023/12/08 04:48:11;;;;;;;2.85;2.60;;;14.50;46.30;;;;;;5151332;27;46592;-64
2023/12/08 04:50:37;;;;;;;3.75;2.63;;;14.50;46.30;;;;;;5151554;27;45362;-65
2023/12/08 04:53:04;;;;;;;3.03;2.60;;;14.50;46.40;;;;;;5151620;27;45369;-64
2023/12/08 04:55:31;;;;;;;2.67;2.47;;;14.50;46.40;;;;;;5151491;27;45265;-64
2023/12/08 04:57:58;;;;;;;2.80;2.60;;;14.40;46.40;;;;;;5150819;27;46601;-64
2023/12/08 05:00:26;;;;;;;3.00;2.60;;;14.40;46.40;;;;;;5151354;27;45323;-64
2023/12/08 05:02:53;;;;;;;2.58;2.38;;;14.40;46.40;;;;;;5151587;27;45294;-64
2023/12/08 05:05:20;;;;;;;3.20;2.70;;;14.40;46.30;;;;;;5151487;27;45263;-65
2023/12/08 05:07:47;;;;;;;2.95;2.50;;;14.40;46.40;;;;;;5150954;27;45324;-64
2023/12/08 05:10:13;;;;;;;2.25;2.05;;;14.40;46.40;;;;;;5151279;27;45298;-64
2023/12/08 05:12:40;;;;;;;2.40;2.20;;;14.40;46.50;;;;;;5151154;27;45471;-64
2023/12/08 05:15:08;;;;;;;2.53;2.30;;;14.40;46.40;;;;;;5151476;27;45323;-64
2023/12/08 05:17:36;;;;;;;2.38;2.17;;;14.40;46.40;;;;;;5150709;27;45259;-64
2023/12/08 05:20:05;;;;;;;2.58;2.30;;;14.40;46.50;;;;;;5150881;27;45251;-65
2023/12/08 05:22:32;;;;;;;2.55;2.35;;;14.40;46.50;;;;;;5151140;27;45312;-64
2023/12/08 05:24:59;;;;;;;2.67;2.30;;;14.40;46.50;;;;;;5151126;27;45313;-65
2023/12/08 05:27:31;;;;;;;2.65;2.45;;;14.40;46.60;;;;;;5150573;27;46412;-64
2023/12/08 05:29:58;;;;;;;2.60;2.40;;;14.40;46.70;;;;;;5150453;27;45561;-64
2023/12/08 05:32:25;;;;;;;2.20;2.00;;;14.40;46.60;;;;;;5150549;27;45419;-65
2023/12/08 05:34:53;;;;;;;2.47;2.28;;;14.40;46.70;;;;;;5150909;27;45293;-65
2023/12/08 05:37:21;;;;;;;2.50;2.30;;;14.30;46.60;;;;;;5150049;27;47310;-64
2023/12/08 05:39:48;;;;;;;2.45;2.25;;;14.30;46.70;;;;;;5150401;27;45299;-64
2023/12/08 05:42:15;;;;;;;2.47;2.28;;;14.30;46.70;;;;;;5150275;27;45280;-64
2023/12/08 05:44:41;;;;;;;2.63;2.42;;;14.30;46.70;;;;;;5150923;27;45351;-64
2023/12/08 05:47:08;;;;;;;3.47;2.50;;;14.30;46.70;;;;;;5150262;27;46500;-64
2023/12/08 05:49:35;;;;;;;2.75;2.42;;;14.30;46.80;;;;;;5150189;27;45299;-64
2023/12/08 05:52:04;;;;;;;2.90;2.13;;;14.30;46.80;;;;;;5150429;27;45246;-66
2023/12/08 05:54:31;;;;;;;2.42;2.22;;;14.30;46.80;;;;;;5149771;27;45424;-64
2023/12/08 05:56:58;;;;;;;2.58;2.35;;;14.30;46.90;;;;;;5150328;27;47598;-64
2023/12/08 05:59:25;;;;;;;2.20;2.00;;;14.30;46.90;;;;;;5150318;27;45306;-64
2023/12/08 06:01:52;;;;;;;2.28;2.08;;;14.20;46.80;;;;;;5150460;27;45324;-64
2023/12/08 06:04:19;;;;;;;2.17;2.00;;;14.20;46.90;;;;;;5150627;27;45481;-65
2023/12/08 06:06:45;;;;;;;2.75;2.25;;;14.20;46.90;;;;;;5150158;27;46691;-64
2023/12/08 06:09:14;;;;;;;2.88;2.50;;;14.30;47.00;;;;;;5150131;27;45386;-64
2023/12/08 06:11:41;;;;;;;2.22;2.00;;;14.30;47.20;;;;;;5150137;27;45286;-65
2023/12/08 06:14:09;;;;;;;2.35;2.15;;;14.30;47.10;;;;;;5150470;27;45305;-64
2023/12/08 06:16:36;;;;;;;2.55;2.35;;;14.40;47.00;;;;;;5149808;27;46565;-64
2023/12/08 06:19:04;;;;;;;2.55;2.35;;;14.50;46.90;;;;;;5149923;27;45331;-64
2023/12/08 06:21:31;;;;;;;2.40;2.20;;;14.60;46.80;;;;;;5150117;27;45329;-64
2023/12/08 06:23:57;;;;;;;2.40;2.20;;;14.60;46.60;;;;;;5149934;27;45345;-64
2023/12/08 06:26:26;;;;;;;2.05;1.95;;;14.80;46.50;;;;;;5149531;27;46501;-64
2023/12/08 06:28:53;;;;;;;2.45;2.25;;;14.90;46.30;;;;;;5149910;27;45252;-65
2023/12/08 06:31:20;;;;;;;2.72;2.53;;;15.00;46.00;;;;;;5149790;27;45305;-64
2023/12/08 06:33:47;;;;;;;2.58;2.30;;;15.10;45.80;;;;;;5149747;27;45304;-64
2023/12/08 06:36:15;;;;;;;1.67;1.58;;;15.20;45.60;;;;;;5149198;27;45361;-64
2023/12/08 06:38:42;;;;;;;2.58;2.38;;;15.40;45.50;;;;;;5149530;27;45289;-65
2023/12/08 06:41:09;;;;;;;2.40;2.20;;;15.50;45.20;;;;;;5149748;27;45383;-65
2023/12/08 06:43:37;;;;;;;2.35;2.13;;;15.60;45.00;;;;;;5149666;27;45292;-64
2023/12/08 06:46:04;;;;;;;1.92;1.70;;;15.80;44.80;;;;;;5149524;27;45389;-65
2023/12/08 06:48:31;;;;;;;1.90;1.80;;;15.90;44.60;;;;;;5149521;27;45296;-64
2023/12/08 06:50:58;;;;;;;2.08;1.88;;;16.00;44.40;;;;;;5149704;27;45337;-63
2023/12/08 06:53:25;;;;;;;1.73;1.63;;;16.10;44.30;;;;;;5161650;27;45393;-64
2023/12/08 06:55:51;;;;;;;2.53;2.33;;;16.20;44.20;;;;;;5156202;27;46166;-64
2023/12/08 06:58:18;;;;;;;2.55;1.90;;;16.30;44.00;;;;;;5164772;27;45455;-64
2023/12/08 07:00:47;;;;;;;2.03;1.80;;;16.40;43.90;;;;;;5149546;27;45277;-64
2023/12/08 07:03:14;;;;;;;3.10;2.00;;;16.50;43.90;;;;;;5157179;27;46019;-64
2023/12/08 07:05:41;;;;;;;4.20;2.05;;;16.60;43.70;;;;;;5152798;27;46772;-64
2023/12/08 07:08:08;;;;;;;3.63;2.38;;;16.70;43.60;;;;;;5148383;27;45438;-64
2023/12/08 07:10:35;;;;;;;2.70;2.05;;;16.80;43.50;;;;;;5155751;27;45369;-64
2023/12/08 07:13:02;;;;;;;2.13;1.92;;;16.90;43.30;;;;;;5169666;27;45247;-65
2023/12/08 07:15:29;;;;;;;3.97;2.10;;;16.90;43.20;;;;;;5167606;27;47269;-65
2023/12/08 07:17:57;;;;;;;2.67;2.03;;;17.00;43.20;;;;;;5169513;27;45312;-64
2023/12/08 07:20:24;;;;;;;2.53;2.00;;;17.00;43.00;;;;;;5168128;27;45329;-64
2023/12/08 07:22:51;;;;;;;2.70;2.05;;;17.10;43.00;;;;;;5158162;27;45369;-64
2023/12/08 07:25:18;;;;;;;3.58;2.13;;;17.20;42.90;;;;;;5169394;27;46136;-63
2023/12/08 07:27:50;;;;;;;2.85;2.08;;;17.20;42.80;;;;;;5169660;27;45482;-63
2023/12/08 07:30:17;;;;;;;2.35;2.13;;;17.30;42.80;;;;;;5169129;27;45315;-63
2023/12/08 07:32:44;;;;;;;2.13;1.92;;;17.30;42.70;;;;;;5156014;27;45484;-63
2023/12/08 07:35:12;;;;;;;2.38;2.17;;;17.40;42.60;;;;;;5149283;27;46416;-64
2023/12/08 07:37:40;;;;;;;3.00;2.13;;;17.50;42.60;;;;;;5147940;27;45296;-63
2023/12/08 07:40:09;;;;;;;2.50;2.10;;;17.50;42.50;;;;;;5148306;27;45250;-64
2023/12/08 07:42:36;;;;;;;6.38;2.53;;;17.50;42.40;;;;;;5149025;27;45475;-64
2023/12/08 07:45:03;;;;;;;3.35;2.10;;;17.60;42.40;;;;;;5148556;27;46651;-64
2023/12/08 07:47:30;;;;;;;2.40;1.95;;;17.60;42.40;;;;;;5163505;27;45193;-63
2023/12/08 07:49:57;;;;;;;3.92;2.38;;;17.70;42.40;;;;;;5162977;27;45307;-63
2023/12/08 07:52:25;;;;;;;5.93;2.20;;;17.70;42.40;;;;;;5162162;27;45329;-67
2023/12/08 07:54:52;;;;;;;4.15;2.50;;;17.70;42.30;;;;;;5147813;27;45409;-63
2023/12/08 07:57:18;;;;;;;2.22;2.00;;;17.80;42.30;;;;;;5147645;27;45348;-64
2023/12/08 07:59:46;;;;;;;3.40;2.38;;;17.80;42.30;;;;;;5153790;27;45333;-64
2023/12/08 08:02:13;;;;;;;4.85;2.22;;;17.90;42.20;;;;;;5162148;27;45390;-64
2023/12/08 08:04:41;;;;;;;3.78;2.28;;;17.90;42.20;;;;;;5158847;27;47288;-64
2023/12/08 08:07:10;;;;;;;4.95;2.47;;;17.90;42.20;;;;;;5168718;27;45442;-63
2023/12/08 08:09:38;;;;;;;2.95;2.10;;;18.00;42.30;;;;;;5165908;27;45350;-63
2023/12/08 08:12:06;;;;;;;3.83;2.20;;;18.00;42.20;;;;;;5149222;27;45448;-64
2023/12/08 08:14:33;;;;;;;4.68;2.13;;;18.00;42.10;;;;;;5163631;27;46319;-63
2023/12/08 08:17:01;;;;;;;2.97;1.75;;;18.10;42.20;;;;;;5155423;27;45441;-64
2023/12/08 08:19:28;;;;;;;4.00;1.88;;;18.10;42.10;;;;;;5151815;27;45358;-64
2023/12/08 08:21:55;;;;;;;4.10;2.55;;;18.20;42.10;;;;;;5152178;27;45470;-67
2023/12/08 08:24:21;;;;;;;6.88;2.10;;;18.20;42.40;;;;;;5168899;27;45705;-69
2023/12/08 08:26:50;;;;;;;8.82;2.22;;;18.40;44.20;;;;;;5155765;27;45376;-65
2023/12/08 08:29:16;;;;;;;3.85;1.80;;;18.50;42.10;;;;;;5150660;27;45704;-68
2023/12/08 08:31:43;;;;;;;16.13;3.00;;;18.60;43.20;;;;;;5156199;27;45433;-69
2023/12/08 08:34:11;;;;;;;8.50;1.90;;;18.70;43.50;;;;;;5161324;27;45482;-67
2023/12/08 08:36:37;;;;;;;5.15;2.35;;;18.90;44.30;;;;;;5149503;27;45477;-66
2023/12/08 08:39:05;;;;;;;4.57;1.60;;;19.10;42.60;;;;;;5161786;27;45471;-67
2023/12/08 08:41:32;;;;;;;7.45;2.10;;;19.30;43.00;;;;;;5154638;27;45688;-71
2023/12/08 08:44:00;;;;;;;5.05;1.95;;;19.30;42.80;;;;;;5154687;27;46276;-69
2023/12/08 08:46:27;;;;;;;4.10;1.58;;;19.50;44.50;;;;;;5155822;27;45371;-66
2023/12/08 08:48:54;;;;;;;5.43;2.13;;;19.50;42.40;;;;;;5155227;27;45407;-65
2023/12/08 08:51:21;;;;;;;6.05;2.42;;;19.50;41.70;;;;;;5162331;27;45235;-67
2023/12/08 08:53:49;;;;;;;5.30;1.95;;;19.50;41.50;;;;;;5159578;27;46195;-64
2023/12/08 08:56:16;;;;;;;4.90;1.95;;;19.50;41.20;;;;;;5158708;27;45494;-69
2023/12/08 08:58:42;;;;;;;4.97;2.40;;;19.50;42.30;;;;;;5151195;27;45416;-70
2023/12/08 09:01:11;;;;;;;4.15;1.60;;;19.60;42.40;;;;;;5161977;27;45485;-65
2023/12/08 09:03:37;;;;;;;9.10;2.40;;;19.60;41.00;;;;;;5158226;27;45507;-66
2023/12/08 09:06:05;;;;;;;5.93;2.15;;;19.60;41.70;;;;;;5159088;27;45737;-67
2023/12/08 09:08:33;;;;;;;3.03;2.35;;;19.80;41.30;;;;;;5152741;27;45494;-66
2023/12/08 09:11:00;;;;;;;4.20;2.97;;;20.00;41.50;;;;;;5158357;27;45504;-61
2023/12/08 09:13:27;;;;;;;5.35;2.88;;;20.10;41.60;;;;;;5160006;27;46806;-62
2023/12/08 09:15:54;;;;;;;4.95;3.53;;;20.30;41.50;;;;;;5154975;27;46369;-64
2023/12/08 09:18:22;;;;;;;4.38;3.40;;;20.40;41.10;;;;;;5153183;27;45437;-62
2023/12/08 09:20:49;;;;;;;5.10;3.20;;;20.60;40.80;;;;;;5158557;27;45379;-64
2023/12/08 09:23:16;;;;;;;4.57;2.90;;;20.70;41.10;;;;;;5165033;27;47331;-63
2023/12/08 09:25:42;;;;;;;4.15;3.28;;;20.80;40.50;;;;;;5155173;27;45435;-62
2023/12/08 09:28:09;;;;;;;5.80;3.33;;;20.90;40.40;;;;;;5153994;27;45486;-64
2023/12/08 09:30:36;;;;;;;4.22;2.60;;;21.00;40.30;;;;;;5159153;27;45539;-62
2023/12/08 09:33:04;;;;;;;4.47;3.03;;;21.10;40.20;;;;;;5155293;27;46368;-63
2023/12/08 09:35:32;;;;;;;5.60;3.63;;;21.20;39.90;;;;;;5152426;27;45456;-68
2023/12/08 09:37:59;;;;;;;6.32;2.83;;;21.20;39.80;;;;;;5162650;27;45404;-74
2023/12/08 09:40:26;;;;;;;4.70;2.70;;;21.20;40.00;;;;;;5164290;27;45397;-66
2023/12/08 09:42:54;;;;;;;6.80;2.60;;;21.20;40.40;;;;;;5161507;27;46404;-65
2023/12/08 09:45:21;;;;;;;3.00;2.15;;;21.30;40.30;;;;;;5158869;27;45324;-68
2023/12/08 09:47:48;;;;;;;3.60;2.10;;;21.30;39.70;;;;;;5154475;27;45431;-63
2023/12/08 09:50:15;;;;;;;3.55;2.10;;;21.40;39.60;;;;;;5153137;27;45524;-67
2023/12/08 09:52:43;;;;;;;5.07;2.00;;;21.40;40.40;;;;;;5170422;27;46342;-64
2023/12/08 09:55:10;;;;;;;2.95;2.25;;;21.50;40.00;;;;;;5165199;27;45535;-69
2023/12/08 09:57:37;;;;;;;8.70;2.38;;;21.50;39.30;;;;;;5160549;27;45448;-68
2023/12/08 10:00:11;;;;;;;9.77;2.58;;;21.50;40.10;;;;;;5161087;27;45401;-65
2023/12/08 10:02:37;;;;;;;10.07;2.58;;;21.40;39.70;;;;;;5156599;27;45448;-63
2023/12/08 10:05:06;;;;;;;17.90;3.53;;;21.50;39.90;;;;;;5149729;27;45325;-65
2023/12/08 10:07:33;;;;;;;13.90;2.88;;;21.50;40.00;;;;;;5157848;27;45679;-68
2023/12/08 10:10:01;;;;;;;5.70;2.20;;;21.60;39.50;;;;;;5157146;27;45417;-67
2023/12/08 10:12:28;;;;;;;8.43;2.78;;;21.60;39.30;;;;;;5170359;27;45324;-69
2023/12/08 10:14:56;;;;;;;6.78;2.22;;;21.60;39.20;;;;;;5157477;27;45467;-72
2023/12/08 10:17:22;;;;;;;11.30;2.30;;;21.50;39.70;;;;;;5168106;27;45387;-70
2023/12/08 10:19:51;;;;;;;5.13;2.40;;;21.40;39.50;;;;;;5164660;27;45701;-70
2023/12/08 10:22:18;;;;;;;7.43;2.20;;;21.30;39.50;;;;;;5159469;27;45466;-69
2023/12/08 10:24:45;;;;;;;4.50;1.83;;;21.20;39.80;;;;;;5155731;27;45566;-70
2023/12/08 10:27:22;;;;;;;8.23;2.00;;;21.20;39.90;;;;;;5159411;27;45481;-73
2023/12/08 10:29:49;;;;;;;5.63;2.25;;;21.10;40.20;;;;;;5164425;27;45632;-66
2023/12/08 10:32:16;;;;;;;2.78;1.88;;;21.00;40.50;;;;;;5166245;27;45380;-67
2023/12/08 10:34:42;;;;;;;2.80;1.90;;;21.00;41.10;;;;;;5162202;27;44999;-68
2023/12/08 10:37:09;;;;;;;3.88;2.00;;;21.10;40.80;;;;;;5163701;27;46161;-72
2023/12/08 10:39:36;;;;;;;2.55;1.90;;;21.10;40.70;;;;;;5158530;27;45519;-66
2023/12/08 10:42:03;;;;;;;9.98;2.35;;;21.00;40.80;;;;;;5158013;27;46305;-68
2023/12/08 10:44:32;;;;;;;10.80;2.05;;;21.00;41.00;;;;;;5155723;27;45374;-66
2023/12/08 10:46:59;;;;;;;4.63;2.05;;;20.90;40.90;;;;;;5160433;27;45395;-66
2023/12/08 10:49:26;;;;;;;6.65;3.67;;;20.80;41.20;;;;;;5166850;27;45419;-70
2023/12/08 10:51:53;;;;;;;3.55;2.20;;;20.80;41.30;;;;;;5167463;27;47348;-69
2023/12/08 10:54:20;;;;;;;3.38;2.10;;;20.80;41.70;;;;;;5159964;27;45430;-69
2023/12/08 10:56:48;;;;;;;7.57;2.63;;;20.70;41.20;;;;;;5169169;27;45269;-67
2023/12/08 10:59:17;;;;;;;6.28;2.17;;;20.70;41.80;;;;;;5164343;27;46116;-65
2023/12/08 11:01:45;;;;;;;4.57;2.05;;;20.60;41.00;;;;;;5160739;27;45517;-68
2023/12/08 11:04:12;;;;;;;9.02;2.13;;;20.40;41.30;;;;;;5168556;27;45344;-67
2023/12/08 11:06:43;;;;;;;7.10;2.28;;;20.40;41.70;;;;;;5166363;27;45391;-68
2023/12/08 11:09:10;;;;;;;8.05;2.10;;;20.50;41.80;;;;;;5166055;27;45537;-71
2023/12/08 11:11:39;;;;;;;9.07;2.10;;;20.50;41.90;;;;;;5160212;27;45278;-71
2023/12/08 11:14:08;;;;;;;8.45;2.05;;;20.60;41.40;;;;;;5164083;27;45547;-66
2023/12/08 11:16:38;;;;;;;9.50;2.30;;;20.70;41.40;;;;;;5165861;27;45546;-66
2023/12/08 11:19:07;;;;;;;3.58;2.00;;;20.80;41.50;;;;;;5161878;27;45416;-73
2023/12/08 11:21:33;;;;;;;4.35;2.45;;;20.80;41.80;;;;;;5161220;27;45452;-68
2023/12/08 11:24:00;;;;;;;5.35;2.00;;;20.90;41.50;;;;;;5157191;27;45346;-64
2023/12/08 11:26:33;;;;;;;7.18;2.05;;;21.00;41.30;;;;;;5158558;27;45418;-64
2023/12/08 11:29:03;;;;;;;5.47;3.00;;;21.10;41.20;;;;;;5165905;27;45509;-65
2023/12/08 11:31:35;;;;;;;8.65;2.70;;;21.10;41.40;;;;;;5162375;27;45549;-64
2023/12/08 11:34:06;;;;;;;7.28;2.53;;;21.10;41.40;;;;;;5159986;27;45398;-66
2023/12/08 11:36:35;;;;;;;7.00;2.65;;;21.10;41.20;;;;;;5158047;27;45354;-66
2023/12/08 11:39:22;;;;;;;5.57;2.40;;;21.10;41.60;;;;;;5160646;27;45475;-70
2023/12/08 11:41:49;;;;;;;11.13;5.55;;;21.10;41.60;;;;;;5158521;27;45458;-67
2023/12/08 11:44:16;;;;;;;11.68;2.83;;;21.10;41.90;;;;;;5155301;27;45401;-66
2023/12/08 11:46:42;;;;;;;5.95;2.55;;;21.20;41.60;;;;;;5157904;27;45440;-64
2023/12/08 11:49:11;;;;;;;6.40;2.83;;;21.20;41.80;;;;;;5163415;27;45512;-69
2023/12/08 11:51:39;;;;;;;8.65;2.95;;;21.20;41.50;;;;;;5164416;27;45253;-67
2023/12/08 11:54:07;;;;;;;10.23;3.53;;;21.20;41.40;;;;;;5155618;27;45315;-64
2023/12/08 11:56:41;;;;;;;7.22;3.05;;;21.20;41.70;;;;;;5156277;27;45499;-69
2023/12/08 11:59:08;;;;;;;3.80;2.55;;;21.20;41.70;;;;;;5165164;27;45406;-64
2023/12/08 12:01:37;;;;;;;7.25;2.90;;;21.20;41.70;;;;;;5154374;27;47207;-64
2023/12/08 12:04:05;;;;;;;8.35;2.50;;;21.10;42.00;;;;;;5165987;27;45321;-65
2023/12/08 12:06:32;;;;;;;16.10;2.55;;;21.00;42.10;;;;;;5168376;27;45472;-64
2023/12/08 12:09:00;;;;;;;7.35;2.35;;;21.00;42.30;;;;;;5164933;27;45353;-65
2023/12/08 12:11:28;;;;;;;7.32;2.10;;;20.90;42.40;;;;;;5157092;27;46419;-64
2023/12/08 12:13:54;;;;;;;6.57;2.25;;;20.80;42.60;;;;;;5167794;27;45382;-64
2023/12/08 12:16:21;;;;;;;7.32;2.03;;;20.80;42.60;;;;;;5157132;27;45340;-65
2023/12/08 12:18:48;;;;;;;5.43;1.92;;;20.70;42.50;;;;;;5149923;27;45395;-64
2023/12/08 12:21:15;;;;;;;2.75;1.88;;;20.70;42.60;;;;;;5164655;27;45665;-63
2023/12/08 12:23:44;;;;;;;11.38;2.25;;;20.70;42.50;;;;;;5158886;27;45472;-64
2023/12/08 12:26:13;;;;;;;5.88;2.10;;;20.70;42.50;;;;;;5155894;27;45286;-63
2023/12/08 12:28:40;;;;;;;3.95;1.95;;;20.60;42.60;;;;;;5154053;27;45479;-64
2023/12/08 12:31:07;;;;;;;5.32;2.17;;;20.60;42.60;;;;;;5146418;27;45447;-64
2023/12/08 12:33:36;;;;;;;8.38;2.10;;;20.60;42.70;;;;;;5150488;27;45379;-64
2023/12/08 12:36:05;;;;;;;3.35;1.90;;;20.60;42.60;;;;;;5159311;27;45384;-62
2023/12/08 12:38:31;;;;;;;3.00;1.60;;;20.60;42.70;;;;;;5155602;27;45348;-63
2023/12/08 12:41:21;;;;;;;5.28;1.95;;;20.60;42.70;;;;;;5167623;27;45376;-63
2023/12/08 12:43:47;;;;;;;6.22;1.88;;;20.60;42.70;;;;;;5161076;27;45436;-63
2023/12/08 12:46:14;;;;;;;4.50;1.83;;;20.50;42.80;;;;;;5164763;27;45455;-63